Grafton, WI (53024)

10:38 AM CDT on May 23, 2015 (GMT -0500)
Lions Den Gorge | | Change Station
CLOSE
Current Station
Personal Weather Station
Location: Grafton, WI
Elevation: 709 ft
Nearby Weather Stations

Elev 709 ft 43.34 °N, 87.90 °W | Updated 33 seconds ago

Clear
Clear
65.6 °F
Feels Like 65.6 °F
N
6.0
Wind Variable Wind from SSW
Gusts 9.0 mph

Today
High -- | Low -- °F
--% Chance of Precip.
Yesterday
High -- | Low -- °F
Precip. -- in
5:20 AM 8:17 PM
Waxing Crescent, 30% visible
Pressure 30.32 in
Visibility 10.0 miles
Clouds Clear
Dew Point 39 °F
Humidity 38%
Rainfall 0.00 in
Snow Depth Not available.
UV 8 out of 12
Pollen 7.00 out of 12
Air Quality Not available.
Flu Activity Sporadic
METAR KETB 231515Z AUTO 19008KT 10SM CLR 21/00 A3032 RMK AO2

More Conditions Fewer Conditions

Pressure 30.32 in
Visibility 10.0 miles
Clouds Clear
Dew Point 39 °F
Humidity 38%
Rainfall 0.00 in
Snow Depth Not available.
UV 8 out of 12
Pollen 7.00 out of 12
Air Quality Not available.
Flu Activity Sporadic
METAR KETB 231515Z AUTO 19008KT 10SM CLR 21/00 A3032 RMK AO2

More Conditions Fewer Conditions

10-Day Weather Forecast

Almanac

Astronomy

May. 23, 2015 Rise Set
Actual Time
Civil Twilight
Nautical Twilight
Astronomical Twilight
Moon
Length of Visible Light
Length of Day
Tomorrow will be .
, % of the Moon is Illuminated

Today's Extremes

State Highs State Lows

Community

WunderPhotos

Upload Photos

1,823,497 photos uploaded!

WunderBlogs® & News

Nearby

Air Quality

  Air Quality AQ Index Pollutant
Not available.

Snow Depth

Station Depth Elevation

Earthquake Activity

City Distance Mag. Time & Date
Minimum magnitude displayed is 2.5.

Coastal Water Temperatures

Place Temperature

Stations

Nearby Weather Stations

Station Location Temp. Windchill Dew Point Humidity Wind Precip. Elev Updated Type